Etusivu
METAR-TAF:

METAR-TAF

Lentoasemat :

Târgu Mureş, Romania

Leveyspiiri: 46-32N, Pituuspiiri: 024-32E, korkeus merenpinnasta: 308 m

Tämänhetkinen sää

Tämä raportti tehtiin 28 minuuttia sitten, kello 19.00 UTC
Tuuli 2 kn koillisesta, vaihdellen pohjoisen ja idän/koillisen välillä
Lämpötila 23°C
Kosteus 78%
Ilmanpaine 1017 hPa
Näkyvyys 10 km tai enemmän

METAR: LRTM 261900Z AUTO 04002KT 350V070 9999 NCD 23/19 Q1017

Aika: 22:28 (19:28 UTC)

Sääennuste

Tämä raportti tehtiin 2 tuntia ja 28 minuuttia sitten, kello 17.00 UTC
Ennuste voimassa 26. päivästä klo 18 UTC - 27. päivään klo 03 UTC
Tuuli 5 kn etelästä/kaakosta
Näkyvyys 10 km tai enemmän
ei pilviä alle 1500 m:ssä eikä cumulonimbus-pilviä

TAF: LRTM 261700Z 2618/2703 16005KT CAVOK

Säähavainnot ja -ennusteet yli 4000 lentoasemalta (METAR- ja TAF-raportit).

Käytössä olevat sääasemat on merkitty karttaan keltaisilla ja punaisilla pisteillä.

Aseta hiiri pisteen päälle nähdäksesi sääaseman nimen.

Klikkaa sitten nähdäksesi säähavainnot ja -ennusteet.

Kartan vaihtaminen: klikkaa mustalla rastilla varustettuja vihreitä pisteitä, niin voit zoomata sisään; viivalla varustettua vihreää pistettä, niin voit zoomata ulos tai vihreitä nuolia, niin pääset viereisille kartoille.


METAR-TAF: